Aeroporto :
LOGIN :

Iscrizione | Disclaimer

   EN    FR    IT 

 










Sommario :    VFR   VFR Marginale   IFR   IFR Intensivo   IFR Molto Intensivo
Visibilità : 
Base nubi : 
>= 8 km
>= 3000ft
5 / 8 km
1000 / 3000 ft
1500m / 5 km
500 / 1000 ft
800 / 1500m
200 / 500 ft
< 800m
< 200 ft
Simboli :   Temporali  Nebbia  Neve Forte  Precipitazioni Forti  Vento > 20 kt
SIGMETs :   Varie  Temporali  Ghiacco  Turbolenza  Onda orograficha  Ceneri Vulcaniche







- Altitudine del aeroporto : 876 ft
- Codice IATA : MBX


LJMB - Maribor

ULTIMO METAR :
  • 151200Z 19009KT 160V240 9999 FEW040 24/14 Q1025

METARs OBSOLETI :
  • 151130Z 20008KT 170V240 9999 FEW033 24/14 Q1025
  • 151100Z 20008KT 170V240 9999 FEW033 23/14 Q1025
  • 151030Z 18008KT 140V240 CAVOK 23/14 Q1026
  • 151000Z 18008KT 140V210 CAVOK 22/13 Q1026
  • 150930Z 18004KT 130V250 CAVOK 22/12 Q1027

TAF TAF LJMB
Valido dal 15 a 12 ore il 16 a 12 ore UTC


151100Z 1512/1612 18005KT CAVOK
TEMPO 1512/1517 20010KT FEW045
PROB30
TEMPO 1603/1607 0600 FG VV001
Nessun NOTAM noto per questo aeroporto.



MetMap, La meteo Aeronautica in un colpo d'occhio ! - Copyright ORBIFLY Dicembre 2007 - Disclaimer

ORBIFLY MET'MAP TEAM :

Programmazione e sviluppo : Alexandra Zaïnal
Concezione e sviluppo : Baudouin d'Aumeries
Co-Programmazione e sviluppo : Marc-Olivier Méhu
Supporto tecnico e logistico : Manuel Goepfert
Aiuto per la traduzione : Arnaldo La Scala

Contatto : metmap@orbifly.com




FONTI E CREDITI :

   NOAA